sensor_id;sensor_type;location;lat;lon;timestamp;temperature;humidity
40756;DHT22;26461;45.630;9.418;2023-04-25T00:01:41;16.90;93.30
40756;DHT22;26461;45.630;9.418;2023-04-25T00:04:55;16.90;93.10
40756;DHT22;26461;45.630;9.418;2023-04-25T00:08:04;17.00;93.40
40756;DHT22;26461;45.630;9.418;2023-04-25T00:11:18;16.90;93.50
40756;DHT22;26461;45.630;9.418;2023-04-25T00:14:26;16.90;93.70
40756;DHT22;26461;45.630;9.418;2023-04-25T00:17:39;16.90;93.60
40756;DHT22;26461;45.630;9.418;2023-04-25T00:20:45;16.90;93.40
40756;DHT22;26461;45.630;9.418;2023-04-25T00:23:53;16.80;93.30
40756;DHT22;26461;45.630;9.418;2023-04-25T00:27:07;16.80;93.40
40756;DHT22;26461;45.630;9.418;2023-04-25T00:30:14;16.80;93.30
40756;DHT22;26461;45.630;9.418;2023-04-25T00:33:23;16.80;93.50
40756;DHT22;26461;45.630;9.418;2023-04-25T00:36:29;16.80;93.50
40756;DHT22;26461;45.630;9.418;2023-04-25T00:39:41;16.70;93.50
40756;DHT22;26461;45.630;9.418;2023-04-25T00:42:47;16.70;93.60
40756;DHT22;26461;45.630;9.418;2023-04-25T00:45:53;16.60;93.70
40756;DHT22;26461;45.630;9.418;2023-04-25T00:48:59;16.60;93.90
40756;DHT22;26461;45.630;9.418;2023-04-25T00:52:05;16.50;93.90
40756;DHT22;26461;45.630;9.418;2023-04-25T00:55:12;16.50;93.90
40756;DHT22;26461;45.630;9.418;2023-04-25T00:58:19;16.50;93.90
40756;DHT22;26461;45.630;9.418;2023-04-25T01:01:34;16.40;93.80
40756;DHT22;26461;45.630;9.418;2023-04-25T01:04:48;16.40;93.90
40756;DHT22;26461;45.630;9.418;2023-04-25T01:07:53;16.40;93.70
40756;DHT22;26461;45.630;9.418;2023-04-25T01:11:09;16.40;93.70
40756;DHT22;26461;45.630;9.418;2023-04-25T01:14:14;16.30;93.70
40756;DHT22;26461;45.630;9.418;2023-04-25T01:17:26;16.30;93.60
40756;DHT22;26461;45.630;9.418;2023-04-25T01:20:37;16.30;93.70
40756;DHT22;26461;45.630;9.418;2023-04-25T01:23:53;16.30;93.70
40756;DHT22;26461;45.630;9.418;2023-04-25T01:27:08;16.20;93.70
40756;DHT22;26461;45.630;9.418;2023-04-25T01:30:20;16.20;93.70
40756;DHT22;26461;45.630;9.418;2023-04-25T01:33:33;16.20;93.80
40756;DHT22;26461;45.630;9.418;2023-04-25T01:36:44;16.30;93.90
40756;DHT22;26461;45.630;9.418;2023-04-25T01:39:56;16.20;94.00
40756;DHT22;26461;45.630;9.418;2023-04-25T01:43:02;16.30;93.90
40756;DHT22;26461;45.630;9.418;2023-04-25T01:46:09;16.30;93.60
40756;DHT22;26461;45.630;9.418;2023-04-25T01:49:22;16.30;93.40
40756;DHT22;26461;45.630;9.418;2023-04-25T01:52:34;16.30;93.20
40756;DHT22;26461;45.630;9.418;2023-04-25T01:55:41;16.30;93.10
40756;DHT22;26461;45.630;9.418;2023-04-25T01:58:52;16.30;92.90
40756;DHT22;26461;45.630;9.418;2023-04-25T02:02:11;16.20;92.90
40756;DHT22;26461;45.630;9.418;2023-04-25T02:05:25;16.20;92.90
40756;DHT22;26461;45.630;9.418;2023-04-25T02:08:33;16.20;92.90
40756;DHT22;26461;45.630;9.418;2023-04-25T02:12:05;16.20;92.80
40756;DHT22;26461;45.630;9.418;2023-04-25T02:15:43;16.20;92.80
40756;DHT22;26461;45.630;9.418;2023-04-25T02:18:58;16.20;93.00
40756;DHT22;26461;45.630;9.418;2023-04-25T02:22:04;16.30;93.20
40756;DHT22;26461;45.630;9.418;2023-04-25T02:25:22;16.20;93.40
40756;DHT22;26461;45.630;9.418;2023-04-25T02:28:31;16.20;93.30
40756;DHT22;26461;45.630;9.418;2023-04-25T02:31:51;16.10;93.30
40756;DHT22;26461;45.630;9.418;2023-04-25T02:34:57;16.10;93.60
40756;DHT22;26461;45.630;9.418;2023-04-25T02:38:17;16.10;93.70
40756;DHT22;26461;45.630;9.418;2023-04-25T02:41:30;16.10;93.90
40756;DHT22;26461;45.630;9.418;2023-04-25T02:44:43;16.10;93.70
40756;DHT22;26461;45.630;9.418;2023-04-25T02:47:50;16.00;93.40
40756;DHT22;26461;45.630;9.418;2023-04-25T02:51:09;16.00;93.20
40756;DHT22;26461;45.630;9.418;2023-04-25T02:54:18;16.00;93.30
40756;DHT22;26461;45.630;9.418;2023-04-25T02:57:28;16.00;93.60
40756;DHT22;26461;45.630;9.418;2023-04-25T03:00:36;15.90;93.40
40756;DHT22;26461;45.630;9.418;2023-04-25T03:03:47;15.90;93.30
40756;DHT22;26461;45.630;9.418;2023-04-25T03:07:06;15.90;93.90
40756;DHT22;26461;45.630;9.418;2023-04-25T03:10:32;15.90;93.60
40756;DHT22;26461;45.630;9.418;2023-04-25T03:13:47;15.80;93.60
40756;DHT22;26461;45.630;9.418;2023-04-25T03:16:55;15.90;93.60
40756;DHT22;26461;45.630;9.418;2023-04-25T03:20:01;15.90;93.80
40756;DHT22;26461;45.630;9.418;2023-04-25T03:23:12;15.90;93.70
40756;DHT22;26461;45.630;9.418;2023-04-25T03:26:23;15.90;93.50
40756;DHT22;26461;45.630;9.418;2023-04-25T03:29:37;15.90;93.30
40756;DHT22;26461;45.630;9.418;2023-04-25T03:32:52;15.90;93.30
40756;DHT22;26461;45.630;9.418;2023-04-25T03:36:00;15.90;93.20
40756;DHT22;26461;45.630;9.418;2023-04-25T03:39:07;15.90;93.10
40756;DHT22;26461;45.630;9.418;2023-04-25T03:42:29;15.90;93.00
40756;DHT22;26461;45.630;9.418;2023-04-25T03:45:48;15.90;93.40
40756;DHT22;26461;45.630;9.418;2023-04-25T03:49:01;15.80;92.50
40756;DHT22;26461;45.630;9.418;2023-04-25T03:52:36;15.80;92.10
40756;DHT22;26461;45.630;9.418;2023-04-25T03:55:49;15.60;91.20
40756;DHT22;26461;45.630;9.418;2023-04-25T03:59:01;15.60;90.50
40756;DHT22;26461;45.630;9.418;2023-04-25T04:02:29;15.50;90.30
40756;DHT22;26461;45.630;9.418;2023-04-25T04:05:48;15.40;89.00
40756;DHT22;26461;45.630;9.418;2023-04-25T04:09:04;15.40;89.20
40756;DHT22;26461;45.630;9.418;2023-04-25T04:12:18;15.40;90.40
40756;DHT22;26461;45.630;9.418;2023-04-25T04:15:32;15.30;91.10
40756;DHT22;26461;45.630;9.418;2023-04-25T04:18:46;15.30;91.70
40756;DHT22;26461;45.630;9.418;2023-04-25T04:21:54;15.30;92.20
40756;DHT22;26461;45.630;9.418;2023-04-25T04:25:08;15.30;92.40
40756;DHT22;26461;45.630;9.418;2023-04-25T04:28:41;15.20;92.60
40756;DHT22;26461;45.630;9.418;2023-04-25T04:32:20;15.20;92.90
40756;DHT22;26461;45.630;9.418;2023-04-25T04:35:35;15.20;93.10
40756;DHT22;26461;45.630;9.418;2023-04-25T04:39:01;15.20;93.20
40756;DHT22;26461;45.630;9.418;2023-04-25T04:42:22;15.20;93.40
40756;DHT22;26461;45.630;9.418;2023-04-25T04:45:43;15.20;93.60
40756;DHT22;26461;45.630;9.418;2023-04-25T04:49:24;15.20;93.70
40756;DHT22;26461;45.630;9.418;2023-04-25T04:52:51;15.20;93.80
40756;DHT22;26461;45.630;9.418;2023-04-25T04:56:26;15.20;93.80
40756;DHT22;26461;45.630;9.418;2023-04-25T05:00:17;15.20;93.70
40756;DHT22;26461;45.630;9.418;2023-04-25T05:03:53;15.10;93.40
40756;DHT22;26461;45.630;9.418;2023-04-25T05:07:27;15.10;93.10
40756;DHT22;26461;45.630;9.418;2023-04-25T05:11:10;15.00;92.50
40756;DHT22;26461;45.630;9.418;2023-04-25T05:14:43;14.90;91.40
40756;DHT22;26461;45.630;9.418;2023-04-25T05:18:16;14.90;91.40
40756;DHT22;26461;45.630;9.418;2023-04-25T05:21:41;14.90;91.50
40756;DHT22;26461;45.630;9.418;2023-04-25T05:24:59;14.90;92.00
40756;DHT22;26461;45.630;9.418;2023-04-25T05:28:40;14.90;92.20
40756;DHT22;26461;45.630;9.418;2023-04-25T05:32:18;15.00;91.70
40756;DHT22;26461;45.630;9.418;2023-04-25T05:35:36;15.00;91.00
40756;DHT22;26461;45.630;9.418;2023-04-25T05:38:45;15.00;90.50
40756;DHT22;26461;45.630;9.418;2023-04-25T05:42:03;15.10;90.10
40756;DHT22;26461;45.630;9.418;2023-04-25T05:45:23;15.10;89.70
40756;DHT22;26461;45.630;9.418;2023-04-25T05:49:02;15.10;89.10
40756;DHT22;26461;45.630;9.418;2023-04-25T05:52:23;15.10;88.80
40756;DHT22;26461;45.630;9.418;2023-04-25T05:56:04;15.20;88.60
40756;DHT22;26461;45.630;9.418;2023-04-25T05:59:10;15.20;88.80
40756;DHT22;26461;45.630;9.418;2023-04-25T06:02:16;15.20;89.00
40756;DHT22;26461;45.630;9.418;2023-04-25T06:05:22;15.20;88.90
40756;DHT22;26461;45.630;9.418;2023-04-25T06:08:36;15.30;88.90
40756;DHT22;26461;45.630;9.418;2023-04-25T06:11:57;15.30;89.00
40756;DHT22;26461;45.630;9.418;2023-04-25T06:15:10;15.30;89.00
40756;DHT22;26461;45.630;9.418;2023-04-25T06:18:25;15.30;89.30
40756;DHT22;26461;45.630;9.418;2023-04-25T06:21:46;15.40;90.00
40756;DHT22;26461;45.630;9.418;2023-04-25T06:24:55;15.40;89.80
40756;DHT22;26461;45.630;9.418;2023-04-25T06:28:10;15.40;90.00
40756;DHT22;26461;45.630;9.418;2023-04-25T06:31:21;15.50;90.30
40756;DHT22;26461;45.630;9.418;2023-04-25T06:34:30;15.50;90.60
40756;DHT22;26461;45.630;9.418;2023-04-25T06:37:40;15.60;90.60
40756;DHT22;26461;45.630;9.418;2023-04-25T06:41:06;15.70;90.60
40756;DHT22;26461;45.630;9.418;2023-04-25T06:44:26;15.80;90.60
40756;DHT22;26461;45.630;9.418;2023-04-25T06:47:43;15.90;90.50
40756;DHT22;26461;45.630;9.418;2023-04-25T06:50:51;15.90;90.80
40756;DHT22;26461;45.630;9.418;2023-04-25T06:54:08;16.00;90.60
40756;DHT22;26461;45.630;9.418;2023-04-25T06:57:28;16.00;91.00
40756;DHT22;26461;45.630;9.418;2023-04-25T07:00:46;16.10;91.30
40756;DHT22;26461;45.630;9.418;2023-04-25T07:03:55;16.10;91.20
40756;DHT22;26461;45.630;9.418;2023-04-25T07:07:02;16.10;91.40
40756;DHT22;26461;45.630;9.418;2023-04-25T07:10:26;16.10;91.40
40756;DHT22;26461;45.630;9.418;2023-04-25T07:13:33;16.10;91.60
40756;DHT22;26461;45.630;9.418;2023-04-25T07:16:43;16.20;91.90
40756;DHT22;26461;45.630;9.418;2023-04-25T07:19:49;16.20;91.70
40756;DHT22;26461;45.630;9.418;2023-04-25T07:22:58;16.30;91.60
40756;DHT22;26461;45.630;9.418;2023-04-25T07:26:18;16.30;91.80
40756;DHT22;26461;45.630;9.418;2023-04-25T07:29:57;16.40;91.80
40756;DHT22;26461;45.630;9.418;2023-04-25T07:33:12;16.40;91.80
40756;DHT22;26461;45.630;9.418;2023-04-25T07:36:27;16.40;91.70
40756;DHT22;26461;45.630;9.418;2023-04-25T07:39:33;16.40;91.80
40756;DHT22;26461;45.630;9.418;2023-04-25T07:42:54;16.40;92.10
40756;DHT22;26461;45.630;9.418;2023-04-25T07:46:29;16.40;92.40
40756;DHT22;26461;45.630;9.418;2023-04-25T07:49:37;16.40;92.00
40756;DHT22;26461;45.630;9.418;2023-04-25T07:52:55;16.40;91.80
40756;DHT22;26461;45.630;9.418;2023-04-25T07:56:11;16.40;92.00
40756;DHT22;26461;45.630;9.418;2023-04-25T07:59:21;16.50;91.90
40756;DHT22;26461;45.630;9.418;2023-04-25T08:02:27;16.60;92.30
40756;DHT22;26461;45.630;9.418;2023-04-25T08:05:33;16.60;93.50
40756;DHT22;26461;45.630;9.418;2023-04-25T08:08:45;16.80;93.50
40756;DHT22;26461;45.630;9.418;2023-04-25T08:11:57;16.90;93.00
40756;DHT22;26461;45.630;9.418;2023-04-25T08:15:10;16.80;92.80
40756;DHT22;26461;45.630;9.418;2023-04-25T08:18:18;16.90;92.30
40756;DHT22;26461;45.630;9.418;2023-04-25T08:21:26;16.80;92.30
40756;DHT22;26461;45.630;9.418;2023-04-25T08:24:37;16.80;92.10
40756;DHT22;26461;45.630;9.418;2023-04-25T08:27:50;16.80;92.60
40756;DHT22;26461;45.630;9.418;2023-04-25T08:31:09;16.80;91.90
40756;DHT22;26461;45.630;9.418;2023-04-25T08:34:49;16.80;91.60
40756;DHT22;26461;45.630;9.418;2023-04-25T08:38:04;16.80;91.90
40756;DHT22;26461;45.630;9.418;2023-04-25T08:41:21;16.90;92.30
40756;DHT22;26461;45.630;9.418;2023-04-25T08:44:38;16.90;92.30
40756;DHT22;26461;45.630;9.418;2023-04-25T08:47:48;17.00;92.30
40756;DHT22;26461;45.630;9.418;2023-04-25T08:51:02;17.00;92.10
40756;DHT22;26461;45.630;9.418;2023-04-25T08:54:18;17.10;92.10
40756;DHT22;26461;45.630;9.418;2023-04-25T08:57:34;17.10;91.90
40756;DHT22;26461;45.630;9.418;2023-04-25T09:00:49;17.20;91.80
40756;DHT22;26461;45.630;9.418;2023-04-25T09:04:17;17.20;92.00
40756;DHT22;26461;45.630;9.418;2023-04-25T09:07:24;17.20;91.70
40756;DHT22;26461;45.630;9.418;2023-04-25T09:10:36;17.20;91.70
40756;DHT22;26461;45.630;9.418;2023-04-25T09:13:48;17.30;92.60
40756;DHT22;26461;45.630;9.418;2023-04-25T09:17:15;17.30;92.50
40756;DHT22;26461;45.630;9.418;2023-04-25T09:20:45;17.30;92.60
40756;DHT22;26461;45.630;9.418;2023-04-25T09:24:06;17.30;92.40
40756;DHT22;26461;45.630;9.418;2023-04-25T09:27:18;17.30;93.20
40756;DHT22;26461;45.630;9.418;2023-04-25T09:30:42;17.30;93.10
40756;DHT22;26461;45.630;9.418;2023-04-25T09:33:59;17.30;93.00
40756;DHT22;26461;45.630;9.418;2023-04-25T09:37:25;17.40;93.10
40756;DHT22;26461;45.630;9.418;2023-04-25T09:41:15;17.40;92.70
40756;DHT22;26461;45.630;9.418;2023-04-25T09:44:28;17.50;92.00
40756;DHT22;26461;45.630;9.418;2023-04-25T09:47:37;17.40;92.20
40756;DHT22;26461;45.630;9.418;2023-04-25T09:51:06;17.40;91.90
40756;DHT22;26461;45.630;9.418;2023-04-25T09:54:20;17.40;92.00
40756;DHT22;26461;45.630;9.418;2023-04-25T09:57:41;17.40;92.40
40756;DHT22;26461;45.630;9.418;2023-04-25T10:01:06;17.40;93.00
40756;DHT22;26461;45.630;9.418;2023-04-25T10:04:34;17.40;92.80
40756;DHT22;26461;45.630;9.418;2023-04-25T10:07:55;17.40;93.10
40756;DHT22;26461;45.630;9.418;2023-04-25T10:11:11;17.40;93.00
40756;DHT22;26461;45.630;9.418;2023-04-25T10:14:27;17.50;92.70
40756;DHT22;26461;45.630;9.418;2023-04-25T10:17:34;17.50;93.50
40756;DHT22;26461;45.630;9.418;2023-04-25T10:20:45;17.50;92.90
40756;DHT22;26461;45.630;9.418;2023-04-25T10:24:01;17.60;92.90
40756;DHT22;26461;45.630;9.418;2023-04-25T10:27:14;17.60;93.20
40756;DHT22;26461;45.630;9.418;2023-04-25T10:30:26;17.70;93.40
40756;DHT22;26461;45.630;9.418;2023-04-25T10:33:40;17.70;92.30
40756;DHT22;26461;45.630;9.418;2023-04-25T10:37:03;17.70;92.10
40756;DHT22;26461;45.630;9.418;2023-04-25T10:40:22;17.80;92.30
40756;DHT22;26461;45.630;9.418;2023-04-25T10:43:44;17.80;92.60
40756;DHT22;26461;45.630;9.418;2023-04-25T10:47:01;17.80;92.00
40756;DHT22;26461;45.630;9.418;2023-04-25T10:50:09;17.80;92.00
40756;DHT22;26461;45.630;9.418;2023-04-25T10:53:24;17.80;92.00
40756;DHT22;26461;45.630;9.418;2023-04-25T10:56:42;17.80;91.40
40756;DHT22;26461;45.630;9.418;2023-04-25T10:59:59;17.80;92.20
40756;DHT22;26461;45.630;9.418;2023-04-25T11:03:27;17.80;92.30
40756;DHT22;26461;45.630;9.418;2023-04-25T11:10:16;17.90;91.70
40756;DHT22;26461;45.630;9.418;2023-04-25T11:13:33;17.90;91.70
40756;DHT22;26461;45.630;9.418;2023-04-25T11:16:58;18.00;91.40
40756;DHT22;26461;45.630;9.418;2023-04-25T11:20:15;18.00;90.60
40756;DHT22;26461;45.630;9.418;2023-04-25T11:23:21;18.00;91.00
40756;DHT22;26461;45.630;9.418;2023-04-25T11:26:30;18.00;90.50
40756;DHT22;26461;45.630;9.418;2023-04-25T11:29:41;18.00;90.90
40756;DHT22;26461;45.630;9.418;2023-04-25T11:32:53;18.10;91.50
40756;DHT22;26461;45.630;9.418;2023-04-25T11:36:11;18.00;91.20
40756;DHT22;26461;45.630;9.418;2023-04-25T11:39:23;18.00;91.40
40756;DHT22;26461;45.630;9.418;2023-04-25T11:42:50;18.00;92.90
40756;DHT22;26461;45.630;9.418;2023-04-25T11:46:03;18.00;92.90
40756;DHT22;26461;45.630;9.418;2023-04-25T11:49:32;18.00;92.70
40756;DHT22;26461;45.630;9.418;2023-04-25T11:52:50;18.00;92.90
40756;DHT22;26461;45.630;9.418;2023-04-25T11:55:59;18.10;93.30
40756;DHT22;26461;45.630;9.418;2023-04-25T11:59:23;18.00;93.30
40756;DHT22;26461;45.630;9.418;2023-04-25T12:02:35;17.90;94.60
40756;DHT22;26461;45.630;9.418;2023-04-25T12:05:45;17.90;94.80
40756;DHT22;26461;45.630;9.418;2023-04-25T12:09:12;17.80;95.00
40756;DHT22;26461;45.630;9.418;2023-04-25T12:12:44;17.70;95.20
40756;DHT22;26461;45.630;9.418;2023-04-25T12:16:09;17.60;95.30
40756;DHT22;26461;45.630;9.418;2023-04-25T12:19:24;17.60;95.60
40756;DHT22;26461;45.630;9.418;2023-04-25T12:22:44;17.50;96.00
40756;DHT22;26461;45.630;9.418;2023-04-25T12:25:59;17.40;95.80
40756;DHT22;26461;45.630;9.418;2023-04-25T12:29:23;17.30;95.60
40756;DHT22;26461;45.630;9.418;2023-04-25T12:32:41;17.20;94.60
40756;DHT22;26461;45.630;9.418;2023-04-25T12:35:53;17.10;95.20
40756;DHT22;26461;45.630;9.418;2023-04-25T12:39:17;17.10;96.50
40756;DHT22;26461;45.630;9.418;2023-04-25T12:42:34;17.00;96.30
40756;DHT22;26461;45.630;9.418;2023-04-25T12:45:51;17.00;96.30
40756;DHT22;26461;45.630;9.418;2023-04-25T12:49:07;16.90;97.60
40756;DHT22;26461;45.630;9.418;2023-04-25T12:52:22;16.90;98.20
40756;DHT22;26461;45.630;9.418;2023-04-25T12:55:28;16.90;98.30
40756;DHT22;26461;45.630;9.418;2023-04-25T12:58:49;16.90;98.50
40756;DHT22;26461;45.630;9.418;2023-04-25T13:01:57;16.90;98.90
40756;DHT22;26461;45.630;9.418;2023-04-25T13:05:14;16.90;98.70
40756;DHT22;26461;45.630;9.418;2023-04-25T13:08:27;16.90;98.70
40756;DHT22;26461;45.630;9.418;2023-04-25T13:11:46;17.00;99.00
40756;DHT22;26461;45.630;9.418;2023-04-25T13:14:59;17.00;98.40
40756;DHT22;26461;45.630;9.418;2023-04-25T13:18:12;17.00;97.60
40756;DHT22;26461;45.630;9.418;2023-04-25T13:21:23;17.00;97.70
40756;DHT22;26461;45.630;9.418;2023-04-25T13:24:41;17.10;96.50
40756;DHT22;26461;45.630;9.418;2023-04-25T13:27:56;17.20;95.90
40756;DHT22;26461;45.630;9.418;2023-04-25T13:31:09;17.20;96.30
40756;DHT22;26461;45.630;9.418;2023-04-25T13:34:18;17.20;95.90
40756;DHT22;26461;45.630;9.418;2023-04-25T13:37:25;17.20;94.90
40756;DHT22;26461;45.630;9.418;2023-04-25T13:40:38;17.20;93.90
40756;DHT22;26461;45.630;9.418;2023-04-25T13:44:00;17.30;94.20
40756;DHT22;26461;45.630;9.418;2023-04-25T13:47:12;17.30;94.20
40756;DHT22;26461;45.630;9.418;2023-04-25T13:50:18;17.40;94.20
40756;DHT22;26461;45.630;9.418;2023-04-25T13:53:26;17.50;92.70
40756;DHT22;26461;45.630;9.418;2023-04-25T13:56:32;17.50;93.10
40756;DHT22;26461;45.630;9.418;2023-04-25T13:59:51;17.70;91.90
40756;DHT22;26461;45.630;9.418;2023-04-25T14:03:03;17.90;92.00
40756;DHT22;26461;45.630;9.418;2023-04-25T14:06:24;18.20;91.70
40756;DHT22;26461;45.630;9.418;2023-04-25T14:09:42;18.40;91.40
40756;DHT22;26461;45.630;9.418;2023-04-25T14:12:58;18.70;90.80
40756;DHT22;26461;45.630;9.418;2023-04-25T14:16:08;18.90;87.70
40756;DHT22;26461;45.630;9.418;2023-04-25T14:19:22;19.10;86.10
40756;DHT22;26461;45.630;9.418;2023-04-25T14:22:32;19.30;87.70
40756;DHT22;26461;45.630;9.418;2023-04-25T14:25:47;19.60;88.90
40756;DHT22;26461;45.630;9.418;2023-04-25T14:29:05;19.70;83.70
40756;DHT22;26461;45.630;9.418;2023-04-25T14:32:19;20.00;82.50
40756;DHT22;26461;45.630;9.418;2023-04-25T14:35:41;20.10;81.20
40756;DHT22;26461;45.630;9.418;2023-04-25T14:38:51;20.20;80.50
40756;DHT22;26461;45.630;9.418;2023-04-25T14:41:57;20.30;81.00
40756;DHT22;26461;45.630;9.418;2023-04-25T14:45:14;20.30;79.50
40756;DHT22;26461;45.630;9.418;2023-04-25T14:48:22;20.50;81.90
40756;DHT22;26461;45.630;9.418;2023-04-25T14:51:37;20.70;80.90
40756;DHT22;26461;45.630;9.418;2023-04-25T14:54:50;20.70;81.70
40756;DHT22;26461;45.630;9.418;2023-04-25T14:58:10;20.70;79.60
40756;DHT22;26461;45.630;9.418;2023-04-25T15:01:19;20.90;79.20
40756;DHT22;26461;45.630;9.418;2023-04-25T15:04:28;21.00;79.00
40756;DHT22;26461;45.630;9.418;2023-04-25T15:07:37;21.10;73.40
40756;DHT22;26461;45.630;9.418;2023-04-25T15:10:50;21.00;70.50
40756;DHT22;26461;45.630;9.418;2023-04-25T15:14:06;21.10;71.10
40756;DHT22;26461;45.630;9.418;2023-04-25T15:17:22;21.10;70.30
40756;DHT22;26461;45.630;9.418;2023-04-25T15:20:31;21.40;71.80
40756;DHT22;26461;45.630;9.418;2023-04-25T15:23:46;21.60;68.20
40756;DHT22;26461;45.630;9.418;2023-04-25T15:27:05;21.70;69.30
40756;DHT22;26461;45.630;9.418;2023-04-25T15:30:22;21.90;68.60
40756;DHT22;26461;45.630;9.418;2023-04-25T15:33:41;22.10;67.90
40756;DHT22;26461;45.630;9.418;2023-04-25T15:37:02;22.30;69.20
40756;DHT22;26461;45.630;9.418;2023-04-25T15:40:19;22.60;68.60
40756;DHT22;26461;45.630;9.418;2023-04-25T15:43:29;22.80;68.70
40756;DHT22;26461;45.630;9.418;2023-04-25T15:46:40;22.80;67.40
40756;DHT22;26461;45.630;9.418;2023-04-25T15:49:49;22.80;67.70
40756;DHT22;26461;45.630;9.418;2023-04-25T15:53:02;22.90;67.30
40756;DHT22;26461;45.630;9.418;2023-04-25T15:56:16;23.00;67.00
40756;DHT22;26461;45.630;9.418;2023-04-25T15:59:33;23.10;66.00
40756;DHT22;26461;45.630;9.418;2023-04-25T16:02:44;23.30;65.30
40756;DHT22;26461;45.630;9.418;2023-04-25T16:05:50;23.30;65.60
40756;DHT22;26461;45.630;9.418;2023-04-25T16:09:07;23.40;65.50
40756;DHT22;26461;45.630;9.418;2023-04-25T16:12:16;23.40;64.40
40756;DHT22;26461;45.630;9.418;2023-04-25T16:15:21;23.50;63.40
40756;DHT22;26461;45.630;9.418;2023-04-25T16:18:34;23.60;62.70
40756;DHT22;26461;45.630;9.418;2023-04-25T16:21:48;23.90;61.80
40756;DHT22;26461;45.630;9.418;2023-04-25T16:24:53;24.00;61.50
40756;DHT22;26461;45.630;9.418;2023-04-25T16:28:13;24.10;61.00
40756;DHT22;26461;45.630;9.418;2023-04-25T16:31:28;24.20;60.10
40756;DHT22;26461;45.630;9.418;2023-04-25T16:34:36;24.20;59.30
40756;DHT22;26461;45.630;9.418;2023-04-25T16:37:41;24.20;58.80
40756;DHT22;26461;45.630;9.418;2023-04-25T16:40:50;24.20;58.90
40756;DHT22;26461;45.630;9.418;2023-04-25T16:44:07;24.30;58.30
40756;DHT22;26461;45.630;9.418;2023-04-25T16:47:13;24.30;58.60
40756;DHT22;26461;45.630;9.418;2023-04-25T16:50:31;24.30;58.50
40756;DHT22;26461;45.630;9.418;2023-04-25T16:53:37;24.30;58.20
40756;DHT22;26461;45.630;9.418;2023-04-25T16:56:48;24.10;59.20
40756;DHT22;26461;45.630;9.418;2023-04-25T16:59:54;24.10;59.20
40756;DHT22;26461;45.630;9.418;2023-04-25T17:03:02;24.20;58.60
40756;DHT22;26461;45.630;9.418;2023-04-25T17:06:09;24.20;59.00
40756;DHT22;26461;45.630;9.418;2023-04-25T17:09:21;24.30;59.30
40756;DHT22;26461;45.630;9.418;2023-04-25T17:12:36;24.30;60.50
40756;DHT22;26461;45.630;9.418;2023-04-25T17:16:02;24.30;63.10
40756;DHT22;26461;45.630;9.418;2023-04-25T17:19:23;24.20;64.20
40756;DHT22;26461;45.630;9.418;2023-04-25T17:22:35;24.10;65.20
40756;DHT22;26461;45.630;9.418;2023-04-25T17:26:00;23.90;65.80
40756;DHT22;26461;45.630;9.418;2023-04-25T17:29:19;23.70;66.30
40756;DHT22;26461;45.630;9.418;2023-04-25T17:32:33;23.60;66.30
40756;DHT22;26461;45.630;9.418;2023-04-25T17:35:47;23.50;67.00
40756;DHT22;26461;45.630;9.418;2023-04-25T17:39:03;23.40;67.30
40756;DHT22;26461;45.630;9.418;2023-04-25T17:42:47;23.20;66.10
40756;DHT22;26461;45.630;9.418;2023-04-25T17:46:06;23.00;66.20
40756;DHT22;26461;45.630;9.418;2023-04-25T17:49:12;22.80;66.20
40756;DHT22;26461;45.630;9.418;2023-04-25T17:52:27;22.60;66.30
40756;DHT22;26461;45.630;9.418;2023-04-25T17:55:45;22.40;66.60
40756;DHT22;26461;45.630;9.418;2023-04-25T17:59:03;22.10;67.40
40756;DHT22;26461;45.630;9.418;2023-04-25T18:02:17;21.90;67.80
40756;DHT22;26461;45.630;9.418;2023-04-25T18:05:37;21.50;69.10
40756;DHT22;26461;45.630;9.418;2023-04-25T18:08:53;21.10;70.00
40756;DHT22;26461;45.630;9.418;2023-04-25T18:12:09;20.70;70.80
40756;DHT22;26461;45.630;9.418;2023-04-25T18:15:20;20.30;71.80
40756;DHT22;26461;45.630;9.418;2023-04-25T18:18:40;20.00;73.10
40756;DHT22;26461;45.630;9.418;2023-04-25T18:21:53;19.70;74.30
40756;DHT22;26461;45.630;9.418;2023-04-25T18:24:59;19.30;75.50
40756;DHT22;26461;45.630;9.418;2023-04-25T18:28:05;19.00;76.60
40756;DHT22;26461;45.630;9.418;2023-04-25T18:31:13;18.80;77.70
40756;DHT22;26461;45.630;9.418;2023-04-25T18:34:27;18.50;78.80
40756;DHT22;26461;45.630;9.418;2023-04-25T18:37:39;18.30;80.00
40756;DHT22;26461;45.630;9.418;2023-04-25T18:40:55;18.00;81.00
40756;DHT22;26461;45.630;9.418;2023-04-25T18:44:01;17.80;82.00
40756;DHT22;26461;45.630;9.418;2023-04-25T18:47:11;17.60;82.70
40756;DHT22;26461;45.630;9.418;2023-04-25T18:50:20;17.50;83.60
40756;DHT22;26461;45.630;9.418;2023-04-25T18:53:36;17.30;83.90
40756;DHT22;26461;45.630;9.418;2023-04-25T18:56:54;17.10;84.40
40756;DHT22;26461;45.630;9.418;2023-04-25T19:00:16;17.00;85.30
40756;DHT22;26461;45.630;9.418;2023-04-25T19:03:27;16.90;85.90
40756;DHT22;26461;45.630;9.418;2023-04-25T19:06:44;16.90;86.70
40756;DHT22;26461;45.630;9.418;2023-04-25T19:09:51;16.80;87.00
40756;DHT22;26461;45.630;9.418;2023-04-25T19:13:01;16.80;87.40
40756;DHT22;26461;45.630;9.418;2023-04-25T19:16:17;16.80;87.70
40756;DHT22;26461;45.630;9.418;2023-04-25T19:19:23;16.80;87.80
40756;DHT22;26461;45.630;9.418;2023-04-25T19:22:36;16.80;88.10
40756;DHT22;26461;45.630;9.418;2023-04-25T19:25:45;16.80;88.50
40756;DHT22;26461;45.630;9.418;2023-04-25T19:29:09;16.80;88.70
40756;DHT22;26461;45.630;9.418;2023-04-25T19:32:20;16.80;88.60
40756;DHT22;26461;45.630;9.418;2023-04-25T19:35:28;16.70;88.80
40756;DHT22;26461;45.630;9.418;2023-04-25T19:38:41;16.60;89.30
40756;DHT22;26461;45.630;9.418;2023-04-25T19:41:55;16.60;89.70
40756;DHT22;26461;45.630;9.418;2023-04-25T19:45:10;16.50;90.00
40756;DHT22;26461;45.630;9.418;2023-04-25T19:48:17;16.50;90.10
40756;DHT22;26461;45.630;9.418;2023-04-25T19:51:29;16.50;90.30
40756;DHT22;26461;45.630;9.418;2023-04-25T19:54:38;16.40;90.40
40756;DHT22;26461;45.630;9.418;2023-04-25T19:57:44;16.40;90.50
40756;DHT22;26461;45.630;9.418;2023-04-25T20:01:09;16.30;90.80
40756;DHT22;26461;45.630;9.418;2023-04-25T20:04:21;16.30;91.00
40756;DHT22;26461;45.630;9.418;2023-04-25T20:07:33;16.30;91.20
40756;DHT22;26461;45.630;9.418;2023-04-25T20:10:52;16.20;91.00
40756;DHT22;26461;45.630;9.418;2023-04-25T20:14:04;16.10;91.10
40756;DHT22;26461;45.630;9.418;2023-04-25T20:17:26;16.10;91.40
40756;DHT22;26461;45.630;9.418;2023-04-25T20:20:41;16.00;91.60
40756;DHT22;26461;45.630;9.418;2023-04-25T20:23:50;15.90;91.80
40756;DHT22;26461;45.630;9.418;2023-04-25T20:27:02;15.80;92.00
40756;DHT22;26461;45.630;9.418;2023-04-25T20:30:17;15.80;92.20
40756;DHT22;26461;45.630;9.418;2023-04-25T20:33:27;15.70;92.50
40756;DHT22;26461;45.630;9.418;2023-04-25T20:36:42;15.70;92.80